Prairie Rose, North Dakota
Current Conditions -  °F | °C
As of 12:53 PM on Saturday 25 Oct 2014 (Local Time) from KFAR Reporting Station
Clear Clear  
Wind Chill: 58°   Ceiling: Unl
Heat Index: 58°   Visibility: 10mi
Dew Point: 29°   Wind: 18mph
Humidity: 33%   Direction: 320°NW
Pressure: 30.1"   Gusts: NA
Location:  46.8079°N, 96.8643°W
Report Text: KFAR 251753Z AUTO 32016KT 10SM CLR 14/M02 A3010 RMK AO2 SLP198 T01441017 10144 20044 50002 TSNO $
Loading
Personal Weather Stations






























Interactive Weather Map New forecast layout! Learn more

10-Day Weather Forecast

Advertisements
Track Severe Weather on mobile